Time;durP1;ratioP1;P1;durP2;ratioP2;P2;SDS_P1;SDS_P2;PMS_P1;PMS_P2;Temp;Humidity;BMP_temperature;BMP_pressure;BME280_temperature;BME280_humidity;BME280_pressure;Samples;Min_cycle;Max_cycle;Signal;HPM_P1;HPM_P2
2021/05/16 00:00:38;;;;;;;15.40;5.63;;;;;;;9.86;85.82;100033.06;5032336;28;20538;-53
2021/05/16 00:03:05;;;;;;;13.65;5.90;;;;;;;9.81;86.47;100030.78;5008903;28;20057;-54
2021/05/16 00:05:33;;;;;;;18.15;6.85;;;;;;;9.85;86.44;100030.56;5045648;28;20068;-54
2021/05/16 00:08:00;;;;;;;11.73;6.22;;;;;;;9.86;85.86;100025.19;5050860;28;20045;-54
2021/05/16 00:10:27;;;;;;;10.63;5.65;;;;;;;9.88;86.94;100031.16;5035998;28;20053;-53
2021/05/16 00:12:59;;;;;;;14.63;6.70;;;;;;;9.88;87.02;100036.41;5030964;28;20042;-54
2021/05/16 00:15:27;;;;;;;16.58;6.18;;;;;;;9.95;86.51;100029.75;5030884;28;20046;-55
2021/05/16 00:17:55;;;;;;;14.75;6.22;;;;;;;9.96;86.86;100028.78;5046518;28;20044;-52
2021/05/16 00:20:25;;;;;;;13.75;6.30;;;;;;;9.99;86.97;100032.97;5047234;28;20056;-55
2021/05/16 00:22:52;;;;;;;13.48;5.82;;;;;;;10.01;86.69;100027.59;5032763;28;20060;-52
2021/05/16 00:25:20;;;;;;;14.77;5.70;;;;;;;10.02;86.55;100029.28;5034333;28;20046;-53
2021/05/16 00:27:47;;;;;;;13.95;6.22;;;;;;;10.04;86.33;100030.03;5035860;28;20458;-53
2021/05/16 00:30:16;;;;;;;14.45;5.63;;;;;;;10.06;86.68;100028.09;5035585;28;20060;-52
2021/05/16 00:32:43;;;;;;;13.63;5.30;;;;;;;10.04;86.13;100030.03;5035544;28;20431;-53
2021/05/16 00:35:13;;;;;;;18.30;6.38;;;;;;;9.97;86.82;100034.91;5035431;28;20042;-53
2021/05/16 00:37:40;;;;;;;14.45;6.20;;;;;;;9.99;86.40;100032.97;5035452;28;20049;-53
2021/05/16 00:40:08;;;;;;;13.48;5.40;;;;;;;9.97;86.30;100027.84;5017925;28;20389;-52
2021/05/16 00:42:35;;;;;;;10.73;4.78;;;;;;;9.98;86.26;100028.69;5034363;28;20045;-53
2021/05/16 00:45:10;;;;;;;15.52;5.53;;;;;;;9.97;86.47;100027.84;5035306;28;20049;-54
2021/05/16 00:47:39;;;;;;;13.98;4.80;;;;;;;10.00;86.01;100032.03;5050785;28;20518;-54
2021/05/16 00:50:08;;;;;;;11.70;4.65;;;;;;;10.01;85.92;100033.72;5049203;28;20042;-53
2021/05/16 00:52:37;;;;;;;12.32;4.95;;;;;;;10.00;86.61;100031.19;5033915;28;20052;-53
2021/05/16 00:55:05;;;;;;;14.68;4.93;;;;;;;10.04;86.36;100025.59;5001210;28;20107;-51
2021/05/16 00:57:33;;;;;;;11.30;4.82;;;;;;;10.03;86.49;100028.34;5034756;28;20127;-52
2021/05/16 00:59:59;;;;;;;14.35;5.03;;;;;;;10.04;86.28;100028.22;5034992;28;20041;-53
2021/05/16 01:02:26;;;;;;;12.90;5.22;;;;;;;10.05;86.08;100032.53;5034754;28;20445;-53
2021/05/16 01:04:53;;;;;;;12.98;5.05;;;;;;;10.09;86.99;100022.59;5035242;28;20049;-53
2021/05/16 01:07:20;;;;;;;15.68;5.25;;;;;;;10.08;86.85;100026.19;5017482;28;20045;-53
2021/05/16 01:09:47;;;;;;;10.95;4.65;;;;;;;10.04;86.32;100016.88;5033372;28;20046;-52
2021/05/16 01:12:14;;;;;;;14.15;4.88;;;;;;;10.07;87.02;100019.25;5052461;28;20053;-53
2021/05/16 01:14:44;;;;;;;14.60;5.00;;;;;;;10.00;87.11;100024.16;5037231;28;20060;-52
2021/05/16 01:17:11;;;;;;;11.68;5.35;;;;;;;9.98;87.15;100016.38;5049141;28;20061;-52
2021/05/16 01:19:39;;;;;;;11.73;5.05;;;;;;;10.00;87.52;100018.06;5033388;28;20061;-52
2021/05/16 01:22:07;;;;;;;13.80;5.15;;;;;;;10.04;86.83;100016.88;5034598;28;20052;-52
2021/05/16 01:24:37;;;;;;;12.38;4.85;;;;;;;10.06;86.98;100014.97;5042266;28;20040;-53
2021/05/16 01:27:11;;;;;;;16.10;5.65;;;;;;;10.06;87.01;100013.19;5037390;28;20045;-53
2021/05/16 01:29:39;;;;;;;17.25;5.07;;;;;;;10.06;87.23;100015.81;5052330;28;20055;-54
2021/05/16 01:32:10;;;;;;;16.30;5.15;;;;;;;10.11;86.97;100018.09;5054424;28;20056;-53
2021/05/16 01:34:42;;;;;;;17.63;5.53;;;;;;;10.08;86.42;100018.31;5053302;28;20567;-54
2021/05/16 01:37:10;;;;;;;14.32;5.68;;;;;;;10.08;86.22;100018.31;5036382;28;20045;-51
2021/05/16 01:39:38;;;;;;;17.23;5.60;;;;;;;10.12;86.26;100012.69;5050493;28;20395;-52
2021/05/16 01:42:05;;;;;;;12.57;5.80;;;;;;;10.16;86.28;100015.94;5034152;28;20124;-52
2021/05/16 01:44:34;;;;;;;17.63;5.65;;;;;;;10.12;86.75;100022.38;5033898;28;20037;-53
2021/05/16 01:47:01;;;;;;;16.17;6.38;;;;;;;10.19;85.99;100017.50;5049722;28;20057;-53
2021/05/16 01:49:34;;;;;;;18.17;6.47;;;;;;;10.19;85.83;100014.88;5050018;28;20072;-53
2021/05/16 01:52:01;;;;;;;20.10;6.20;;;;;;;10.14;86.26;100018.69;5033000;28;20053;-52
2021/05/16 01:54:29;;;;;;;14.70;6.15;;;;;;;10.13;85.74;100013.56;5034377;28;20042;-53
2021/05/16 01:56:56;;;;;;;16.85;6.45;;;;;;;10.13;85.61;100022.25;5034183;28;20423;-54
2021/05/16 01:59:23;;;;;;;17.63;6.53;;;;;;;10.12;85.30;100022.38;5037666;28;20052;-51
2021/05/16 02:01:50;;;;;;;17.92;6.13;;;;;;;10.10;85.90;100016.41;5033435;28;20579;-55
2021/05/16 02:04:17;;;;;;;19.90;6.95;;;;;;;10.11;85.92;100016.28;5033464;28;20128;-52
2021/05/16 02:06:44;;;;;;;18.33;6.53;;;;;;;10.05;86.10;100023.78;5031976;28;20049;-52
2021/05/16 02:09:10;;;;;;;16.25;5.55;;;;;;;10.08;85.83;100020.94;5016200;28;20050;-53
2021/05/16 02:11:37;;;;;;;17.98;6.25;;;;;;;10.05;85.51;100019.38;5032421;28;20376;-55
2021/05/16 02:14:04;;;;;;;12.40;4.75;;;;;;;10.09;85.32;100015.56;5033763;28;20053;-54
2021/05/16 02:16:32;;;;;;;16.85;5.47;;;;;;;10.08;85.63;100016.53;5045061;28;20045;-52
2021/05/16 02:18:59;;;;;;;17.25;5.47;;;;;;;10.14;85.16;100023.94;5051607;28;20044;-52
2021/05/16 02:21:26;;;;;;;17.23;5.50;;;;;;;10.17;85.49;100028.13;5033349;28;20053;-53
2021/05/16 02:23:53;;;;;;;19.70;5.47;;;;;;;10.16;84.98;100018.56;5033367;28;20047;-54
2021/05/16 02:26:20;;;;;;;17.70;5.38;;;;;;;10.14;84.96;100017.84;5033285;28;20042;-52
2021/05/16 02:28:46;;;;;;;15.15;5.40;;;;;;;10.07;85.38;100019.25;5033024;28;20056;-54
2021/05/16 02:31:16;;;;;;;17.35;6.05;;;;;;;10.13;84.75;100024.06;5034470;28;20057;-54
2021/05/16 02:33:43;;;;;;;16.77;4.53;;;;;;;10.15;84.60;100022.97;5032061;28;20396;-53
2021/05/16 02:36:10;;;;;;;13.70;4.60;;;;;;;10.10;84.91;100024.28;5033031;28;20053;-53
2021/05/16 02:38:36;;;;;;;19.52;5.20;;;;;;;10.08;85.12;100024.41;5033177;28;20049;-52
2021/05/16 02:41:03;;;;;;;17.73;5.53;;;;;;;10.07;84.14;100025.34;5031865;28;20429;-54
2021/05/16 02:43:30;;;;;;;14.63;4.60;;;;;;;10.08;84.92;100031.47;5033067;28;20511;-56
2021/05/16 02:45:57;;;;;;;19.60;4.80;;;;;;;10.05;84.43;100029.03;5042037;28;20492;-54
2021/05/16 02:48:24;;;;;;;17.30;5.88;;;;;;;10.08;84.89;100024.41;5033160;28;20045;-53
2021/05/16 02:50:50;;;;;;;19.42;5.65;;;;;;;10.07;84.88;100030.59;5048151;28;20059;-54
2021/05/16 02:53:20;;;;;;;20.45;5.25;;;;;;;10.05;84.99;100026.41;5050653;28;20049;-53
2021/05/16 02:55:47;;;;;;;15.70;4.65;;;;;;;10.11;84.90;100026.78;5032718;28;20116;-53
2021/05/16 02:58:15;;;;;;;19.00;5.72;;;;;;;10.10;84.40;100029.53;5041425;28;20049;-52
2021/05/16 03:00:42;;;;;;;18.95;4.88;;;;;;;10.04;84.98;100033.47;5043985;28;20555;-54
2021/05/16 03:03:08;;;;;;;14.20;4.95;;;;;;;10.07;83.98;100027.16;5035401;28;20057;-54
2021/05/16 03:05:35;;;;;;;20.65;5.72;;;;;;;10.11;84.64;100029.41;5040711;28;20038;-55
2021/05/16 03:08:02;;;;;;;17.60;5.00;;;;;;;10.07;84.43;100035.03;5042720;28;20531;-52
2021/05/16 03:10:29;;;;;;;17.88;5.10;;;;;;;10.03;84.41;100037.03;5039631;28;20064;-55
2021/05/16 03:12:57;;;;;;;15.23;4.90;;;;;;;10.07;84.61;100032.41;5038127;28;20047;-51
2021/05/16 03:15:23;;;;;;;22.42;5.10;;;;;;;10.01;84.89;100028.47;5042051;28;20041;-52
2021/05/16 03:17:50;;;;;;;16.73;5.00;;;;;;;10.08;84.31;100031.47;5044923;28;20049;-54
2021/05/16 03:20:17;;;;;;;17.77;4.82;;;;;;;10.08;84.75;100028.81;5045210;28;20120;-53
2021/05/16 03:22:44;;;;;;;20.75;4.72;;;;;;;10.05;84.33;100019.38;5039275;28;20091;-55
2021/05/16 03:25:12;;;;;;;17.73;4.93;;;;;;;10.05;83.97;100027.28;5038404;28;20124;-54
2021/05/16 03:27:39;;;;;;;15.88;5.05;;;;;;;10.04;84.12;100030.03;5039007;28;20447;-52
2021/05/16 03:30:09;;;;;;;23.45;6.32;;;;;;;9.98;84.24;100033.94;5022571;28;20049;-54
2021/05/16 03:32:39;;;;;;;20.98;5.25;;;;;;;9.98;84.45;100028.69;5030364;28;20053;-53
2021/05/16 03:35:07;;;;;;;20.80;5.82;;;;;;;9.95;84.46;100026.28;5039187;28;20045;-53
2021/05/16 03:37:34;;;;;;;17.30;4.95;;;;;;;9.91;85.24;100030.09;5037895;28;20049;-54
2021/05/16 03:40:00;;;;;;;19.90;5.07;;;;;;;9.91;84.73;100025.69;5042951;28;20049;-55
2021/05/16 03:42:27;;;;;;;22.10;5.47;;;;;;;9.96;84.07;100022.72;5021545;28;20049;-55
2021/05/16 03:44:55;;;;;;;20.58;5.80;;;;;;;9.95;84.02;100021.88;5038469;28;20048;-54
2021/05/16 03:47:23;;;;;;;14.82;5.35;;;;;;;9.96;84.30;100023.53;5040432;28;20053;-55
2021/05/16 03:49:50;;;;;;;22.73;4.93;;;;;;;10.03;83.93;100028.34;5036401;28;20053;-55
2021/05/16 03:52:19;;;;;;;21.10;5.30;;;;;;;10.06;83.48;100028.09;5038862;28;20566;-53
2021/05/16 03:54:47;;;;;;;18.95;5.32;;;;;;;10.03;83.78;100036.22;5067237;28;20055;-54
2021/05/16 03:57:15;;;;;;;17.95;6.75;;;;;;;10.01;83.67;100041.59;5024466;28;20049;-54
2021/05/16 03:59:42;;;;;;;20.85;6.10;;;;;;;9.94;83.45;100030.72;5046209;28;20458;-55
2021/05/16 04:02:09;;;;;;;23.05;6.43;;;;;;;9.99;83.74;100032.97;5045599;28;20057;-53
2021/05/16 04:04:36;;;;;;;21.00;6.40;;;;;;;10.02;83.81;100037.16;5042884;28;20049;-55
2021/05/16 04:07:03;;;;;;;21.08;7.03;;;;;;;9.97;83.79;100034.91;5041645;28;20041;-54
2021/05/16 04:09:30;;;;;;;26.48;7.00;;;;;;;9.91;84.52;100035.34;5045675;28;20044;-55
2021/05/16 04:11:57;;;;;;;22.10;7.95;;;;;;;9.91;84.23;100038.81;5039443;28;20045;-54
2021/05/16 04:14:25;;;;;;;22.30;6.10;;;;;;;10.03;83.26;100044.09;5042421;28;20049;-54
2021/05/16 04:16:52;;;;;;;25.88;7.28;;;;;;;9.97;83.18;100032.28;5035850;28;20053;-54
2021/05/16 04:19:18;;;;;;;24.08;7.57;;;;;;;9.95;84.03;100040.28;5037604;28;20427;-53
2021/05/16 04:21:46;;;;;;;23.88;8.07;;;;;;;10.01;83.43;100044.22;5042362;28;20049;-55
2021/05/16 04:24:14;;;;;;;26.27;7.75;;;;;;;10.02;83.43;100043.28;5042506;28;20045;-53
2021/05/16 04:26:41;;;;;;;24.23;7.93;;;;;;;9.98;83.27;100044.47;5044152;28;20037;-54
2021/05/16 04:29:07;;;;;;;20.75;7.60;;;;;;;10.01;83.45;100048.63;5053377;28;20048;-54
2021/05/16 04:31:34;;;;;;;23.65;8.55;;;;;;;10.02;83.42;100043.28;5043426;28;20056;-55
2021/05/16 04:34:01;;;;;;;20.88;8.88;;;;;;;10.07;82.90;100046.38;5047416;28;20496;-53
2021/05/16 04:36:28;;;;;;;36.00;8.98;;;;;;;10.04;83.78;100043.16;5042055;28;20193;-52
2021/05/16 04:38:55;;;;;;;26.52;7.05;;;;;;;10.04;83.55;100041.34;5044113;28;20491;-54
2021/05/16 04:41:21;;;;;;;26.00;8.52;;;;;;;10.02;82.62;100048.53;5045537;28;20041;-54
2021/05/16 04:43:48;;;;;;;27.58;7.68;;;;;;;10.02;83.09;100045.03;5041186;28;20049;-55
2021/05/16 04:46:15;;;;;;;24.45;7.47;;;;;;;10.00;83.91;100050.41;5065408;28;20045;-54
2021/05/16 04:48:42;;;;;;;22.35;7.75;;;;;;;10.11;83.25;100055.69;5040729;28;20082;-54
2021/05/16 04:51:08;;;;;;;21.55;7.57;;;;;;;10.02;83.31;100047.66;5042105;28;20046;-53
2021/05/16 04:53:36;;;;;;;24.85;7.32;;;;;;;9.98;83.41;100045.28;5042205;28;20060;-55
2021/05/16 04:56:04;;;;;;;22.55;8.38;;;;;;;10.03;82.95;100046.72;5042257;28;20408;-55
2021/05/16 04:58:31;;;;;;;21.08;6.88;;;;;;;10.05;83.49;100050.91;5041312;28;20377;-53
2021/05/16 05:00:58;;;;;;;25.83;7.90;;;;;;;10.07;82.86;100054.25;5041772;28;20056;-55
2021/05/16 05:03:25;;;;;;;20.63;7.10;;;;;;;10.03;82.92;100055.44;5041601;28;20053;-55
2021/05/16 05:05:53;;;;;;;20.33;6.40;;;;;;;10.12;82.98;100059.16;5042318;28;20037;-55
2021/05/16 05:08:25;;;;;;;24.38;8.32;;;;;;;10.06;82.76;100047.34;5037632;28;20042;-55
2021/05/16 05:10:56;;;;;;;21.73;7.32;;;;;;;10.08;83.09;100055.09;5034649;28;20061;-55
2021/05/16 05:13:24;;;;;;;23.55;7.22;;;;;;;10.18;82.95;100055.22;5040096;28;20317;-54
2021/05/16 05:15:51;;;;;;;20.77;7.32;;;;;;;10.18;82.63;100057.88;5045374;28;20135;-55
2021/05/16 05:18:18;;;;;;;25.23;7.28;;;;;;;10.14;82.89;100058.09;5041670;28;20404;-55
2021/05/16 05:20:46;;;;;;;22.20;7.63;;;;;;;10.13;82.71;100059.06;5049288;28;20052;-54
2021/05/16 05:23:13;;;;;;;27.15;8.60;;;;;;;10.22;81.73;100056.69;5042011;28;20163;-53
2021/05/16 05:25:40;;;;;;;22.00;7.45;;;;;;;10.15;82.81;100058.94;5052714;28;20484;-55
2021/05/16 05:28:07;;;;;;;18.88;8.02;;;;;;;10.10;81.90;100053.19;5042292;28;20554;-55
2021/05/16 05:30:34;;;;;;;24.58;8.52;;;;;;;10.12;82.41;100056.53;5046156;28;20057;-53
2021/05/16 05:33:04;;;;;;;21.08;7.22;;;;;;;10.17;82.60;100054.41;5034029;28;20045;-55
2021/05/16 05:35:31;;;;;;;20.85;7.80;;;;;;;10.19;83.11;100064.81;5048302;28;20056;-53
2021/05/16 05:37:58;;;;;;;19.77;7.43;;;;;;;10.25;81.80;100065.19;5042682;28;20072;-56
2021/05/16 05:40:24;;;;;;;17.52;6.85;;;;;;;10.28;82.19;100070.19;5039795;28;20108;-54
2021/05/16 05:42:51;;;;;;;24.88;8.77;;;;;;;10.19;82.15;100063.00;5040717;28;20056;-54
2021/05/16 05:45:18;;;;;;;18.75;7.75;;;;;;;10.23;82.34;100061.81;5041502;28;20059;-53
2021/05/16 05:47:45;;;;;;;27.48;9.32;;;;;;;10.24;81.77;100063.50;5046381;28;20053;-53
2021/05/16 05:50:12;;;;;;;23.75;9.43;;;;;;;10.27;81.79;100057.16;5043258;28;20055;-55
2021/05/16 05:52:39;;;;;;;22.92;7.97;;;;;;;10.31;81.61;100063.88;5043055;28;20425;-52
2021/05/16 05:55:06;;;;;;;23.77;9.25;;;;;;;10.34;80.86;100070.69;5044237;28;20041;-53
2021/05/16 05:57:33;;;;;;;24.15;8.93;;;;;;;10.32;80.48;100070.78;5043332;28;20264;-53
2021/05/16 06:00:00;;;;;;;24.23;9.38;;;;;;;10.32;80.99;100062.88;5044053;28;20049;-54
2021/05/16 06:02:27;;;;;;;28.33;10.07;;;;;;;10.34;81.10;100068.06;5032548;28;20408;-51
2021/05/16 06:04:54;;;;;;;29.02;10.73;;;;;;;10.36;80.69;100068.78;5041748;28;20076;-54
2021/05/16 06:07:21;;;;;;;26.92;9.98;;;;;;;10.41;80.42;100071.91;5035915;28;20135;-54
2021/05/16 06:09:48;;;;;;;23.00;9.18;;;;;;;10.46;80.64;100077.66;5053611;28;20103;-53
2021/05/16 06:12:15;;;;;;;27.95;10.50;;;;;;;10.50;80.43;100079.09;5053598;28;20048;-52
2021/05/16 06:14:42;;;;;;;31.23;10.93;;;;;;;10.49;80.93;100074.78;5053623;28;20458;-54
2021/05/16 06:17:09;;;;;;;26.55;9.90;;;;;;;10.53;80.67;100078.84;5052206;28;20052;-53
2021/05/16 06:19:36;;;;;;;23.38;10.02;;;;;;;10.51;80.73;100072.84;5053016;28;20053;-54
2021/05/16 06:22:03;;;;;;;26.30;10.18;;;;;;;10.60;80.56;100084.47;5035841;28;20053;-52
2021/05/16 06:24:30;;;;;;;23.58;9.50;;;;;;;10.57;80.84;100080.28;5053371;28;20132;-53
2021/05/16 06:26:57;;;;;;;22.40;9.80;;;;;;;10.68;80.86;100083.88;5053297;28;20041;-56
2021/05/16 06:29:23;;;;;;;27.45;10.88;;;;;;;10.76;80.81;100087.59;5053342;28;20156;-53
2021/05/16 06:31:50;;;;;;;26.67;10.25;;;;;;;10.82;80.71;100092.38;5053153;28;20040;-52
2021/05/16 06:34:17;;;;;;;26.40;10.18;;;;;;;10.70;79.42;100080.16;5053151;28;20511;-55
2021/05/16 06:36:44;;;;;;;22.30;10.45;;;;;;;10.77;80.41;100091.91;5052994;28;20503;-55
2021/05/16 06:39:11;;;;;;;23.33;9.90;;;;;;;10.83;79.59;100093.22;5051683;28;20064;-55
2021/05/16 06:41:37;;;;;;;24.70;9.32;;;;;;;10.89;79.31;100097.97;5052927;28;20402;-56
2021/05/16 06:44:04;;;;;;;21.83;9.02;;;;;;;10.94;78.94;100095.81;5053087;28;20061;-55
2021/05/16 06:46:31;;;;;;;28.35;10.13;;;;;;;10.90;78.83;100096.19;5052898;28;20049;-54
2021/05/16 06:48:58;;;;;;;24.50;9.02;;;;;;;10.95;78.34;100092.25;5052938;28;20388;-56
2021/05/16 06:51:25;;;;;;;21.58;9.15;;;;;;;10.91;78.87;100090.81;5035223;28;20048;-56
2021/05/16 06:53:58;;;;;;;23.25;9.45;;;;;;;10.84;79.35;100087.00;5053128;28;20102;-57
2021/05/16 06:56:25;;;;;;;24.95;9.95;;;;;;;10.93;79.16;100088.88;5051390;28;20040;-54
2021/05/16 06:58:51;;;;;;;26.77;8.57;;;;;;;10.94;78.71;100085.31;5052582;28;20136;-52
2021/05/16 07:01:19;;;;;;;22.92;9.38;;;;;;;10.93;78.00;100088.88;5053004;28;20049;-54
2021/05/16 07:03:46;;;;;;;22.30;9.18;;;;;;;10.91;78.77;100095.25;5052591;28;20128;-56
2021/05/16 07:06:13;;;;;;;24.23;9.43;;;;;;;11.04;77.95;100087.22;5052642;28;20044;-55
2021/05/16 07:08:40;;;;;;;21.10;8.90;;;;;;;11.21;79.00;100097.25;5051255;28;20470;-57
2021/05/16 07:11:06;;;;;;;27.13;9.02;;;;;;;11.32;77.24;100094.56;5052908;28;20063;-57
2021/05/16 07:13:33;;;;;;;21.95;8.27;;;;;;;11.36;77.00;100094.31;5051360;28;20128;-57
2021/05/16 07:16:00;;;;;;;24.83;7.93;;;;;;;11.41;77.18;100090.38;5051200;28;20037;-55
2021/05/16 07:18:29;;;;;;;24.38;7.45;;;;;;;11.61;76.94;100099.28;5052802;28;20526;-57
2021/05/16 07:20:57;;;;;;;17.17;7.78;;;;;;;11.80;77.16;100087.25;5051165;28;20431;-57
2021/05/16 07:23:23;;;;;;;17.85;7.30;;;;;;;11.74;75.02;100083.34;5052511;28;20052;-57
2021/05/16 07:25:50;;;;;;;22.63;7.22;;;;;;;11.76;75.42;100091.09;5052591;28;20063;-55
2021/05/16 07:28:17;;;;;;;24.35;7.72;;;;;;;11.77;74.87;100092.78;5052664;28;20078;-56
2021/05/16 07:30:44;;;;;;;19.73;6.50;;;;;;;11.88;75.08;100098.00;5052148;28;20135;-54
2021/05/16 07:33:11;;;;;;;21.63;7.05;;;;;;;11.93;74.59;100103.72;5050441;28;20095;-57
2021/05/16 07:35:40;;;;;;;14.55;6.93;;;;;;;11.97;73.53;100104.31;5052187;28;20540;-57
2021/05/16 07:38:07;;;;;;;22.80;7.82;;;;;;;11.98;74.48;100104.22;5034916;28;20503;-57
2021/05/16 07:40:34;;;;;;;17.00;6.97;;;;;;;12.05;73.38;100104.53;5052247;28;20052;-58
2021/05/16 07:43:01;;;;;;;19.85;6.80;;;;;;;12.12;73.44;100110.13;5052250;28;20053;-57
2021/05/16 07:45:28;;;;;;;19.85;6.90;;;;;;;12.08;73.26;100111.34;5052215;28;20437;-56
2021/05/16 07:47:55;;;;;;;20.05;6.68;;;;;;;12.14;73.01;100102.94;5052101;28;20044;-55
2021/05/16 07:50:21;;;;;;;16.80;6.45;;;;;;;12.13;73.70;100114.44;5052450;28;20060;-55
2021/05/16 07:52:48;;;;;;;17.30;6.22;;;;;;;12.09;71.47;100110.38;5051035;28;20479;-55
2021/05/16 07:55:15;;;;;;;18.45;7.05;;;;;;;12.05;72.68;100109.78;5052091;28;20052;-56
2021/05/16 07:57:42;;;;;;;21.83;7.20;;;;;;;12.12;72.06;100107.47;5034346;28;20464;-55
2021/05/16 08:00:11;;;;;;;19.98;6.65;;;;;;;12.18;71.24;100109.63;5050811;28;20045;-56
2021/05/16 08:02:40;;;;;;;17.73;6.90;;;;;;;12.22;71.61;100112.84;5050611;28;20083;-53
2021/05/16 08:05:09;;;;;;;23.45;7.55;;;;;;;12.31;71.67;100110.28;5052085;28;20519;-57
2021/05/16 08:07:35;;;;;;;21.92;7.50;;;;;;;12.44;71.01;100109.22;5050638;28;20049;-54
2021/05/16 08:10:04;;;;;;;22.40;8.07;;;;;;;12.40;71.48;100116.56;5050490;28;20053;-55
2021/05/16 08:12:30;;;;;;;20.55;8.25;;;;;;;12.50;70.10;100120.09;5051806;28;20051;-55
2021/05/16 08:14:57;;;;;;;19.95;8.05;;;;;;;12.66;70.85;100122.25;5051665;28;20060;-56
2021/05/16 08:17:24;;;;;;;21.27;7.85;;;;;;;12.72;69.71;100112.16;5034362;28;20064;-56
2021/05/16 08:19:51;;;;;;;21.83;8.45;;;;;;;12.78;70.38;100120.38;5050661;28;20057;-56
2021/05/16 08:22:18;;;;;;;24.42;8.82;;;;;;;12.78;70.47;100117.72;5051946;28;20037;-56
2021/05/16 08:24:44;;;;;;;24.80;8.82;;;;;;;12.87;69.99;100121.41;5051756;28;20510;-56
2021/05/16 08:27:11;;;;;;;22.35;7.70;;;;;;;12.88;69.76;100119.59;5050521;28;20070;-56
2021/05/16 08:29:38;;;;;;;22.17;9.57;;;;;;;12.94;68.04;100111.97;5051594;28;20055;-56
2021/05/16 08:32:07;;;;;;;21.17;8.40;;;;;;;12.95;68.56;100118.06;5051739;28;20049;-53
2021/05/16 08:34:34;;;;;;;23.67;8.50;;;;;;;13.10;68.71;100118.56;5051545;28;20063;-56
2021/05/16 08:37:01;;;;;;;24.85;8.73;;;;;;;13.27;68.92;100117.91;5050393;28;20514;-56
2021/05/16 08:39:28;;;;;;;19.13;8.52;;;;;;;13.28;68.08;100116.09;5050660;28;20404;-54
2021/05/16 08:41:56;;;;;;;17.48;8.55;;;;;;;13.36;67.60;100113.63;5050508;28;20045;-57
2021/05/16 08:44:24;;;;;;;18.63;8.35;;;;;;;13.39;67.39;100115.19;5037624;28;20484;-56
2021/05/16 08:46:52;;;;;;;19.67;9.02;;;;;;;13.54;67.89;100116.47;5053853;28;20069;-55
2021/05/16 08:49:19;;;;;;;22.08;9.52;;;;;;;13.55;66.57;100118.13;5054933;28;20051;-57
2021/05/16 08:51:50;;;;;;;22.45;9.40;;;;;;;13.48;66.34;100115.22;5054796;28;20379;-57
2021/05/16 08:54:21;;;;;;;18.95;9.40;;;;;;;13.49;67.08;100118.69;5055375;28;20132;-57
2021/05/16 08:56:51;;;;;;;22.77;10.32;;;;;;;13.58;67.74;100115.22;5054908;28;20049;-56
2021/05/16 08:59:20;;;;;;;24.83;11.00;;;;;;;13.73;66.42;100114.81;5053765;28;20040;-57
2021/05/16 09:01:49;;;;;;;23.60;10.02;;;;;;;13.90;66.82;100113.31;5053604;28;20072;-56
2021/05/16 09:04:39;;;;;;;18.05;9.48;;;;;;;13.99;65.92;100117.75;5054885;28;20037;-55
2021/05/16 09:07:06;;;;;;;22.50;9.80;;;;;;;14.24;66.29;100116.31;5053710;28;20479;-57
2021/05/16 09:09:39;;;;;;;21.17;9.93;;;;;;;14.36;63.17;100115.19;5054824;28;20049;-55
2021/05/16 09:12:12;;;;;;;25.02;9.48;;;;;;;14.62;63.86;100111.09;5053716;28;20044;-56
2021/05/16 09:14:51;;;;;;;22.67;9.73;;;;;;;14.76;63.69;100115.13;5053389;28;20531;-55
2021/05/16 09:17:28;;;;;;;16.88;9.35;;;;;;;14.85;62.78;100114.25;5053534;28;20033;-55
2021/05/16 09:20:02;;;;;;;16.63;8.38;;;;;;;15.21;60.90;100109.06;5054777;28;20049;-55
2021/05/16 09:22:45;;;;;;;21.38;8.20;;;;;;;15.42;61.77;100115.91;5053651;28;20037;-54
2021/05/16 09:25:18;;;;;;;16.92;7.40;;;;;;;15.41;58.61;100103.66;5054778;28;20053;-53
2021/05/16 09:27:47;;;;;;;19.70;7.82;;;;;;;15.68;59.01;100108.09;5053300;28;20067;-53
2021/05/16 09:30:17;;;;;;;14.82;8.63;;;;;;;15.92;59.86;100096.88;5054322;28;20094;-54
2021/05/16 09:32:49;;;;;;;17.80;7.13;;;;;;;15.99;56.18;100097.09;5054210;28;20088;-55
2021/05/16 09:35:17;;;;;;;20.67;7.80;;;;;;;15.96;57.24;100098.22;5036901;28;20399;-56
2021/05/16 09:38:00;;;;;;;17.10;7.20;;;;;;;16.01;56.07;100090.66;5054224;28;20052;-58
2021/05/16 09:40:29;;;;;;;15.57;6.63;;;;;;;16.13;57.25;100099.22;5054447;28;20052;-58
2021/05/16 09:43:17;;;;;;;15.40;6.70;;;;;;;16.16;56.00;100103.38;5036542;28;20064;-58
2021/05/16 09:45:44;;;;;;;15.20;6.28;;;;;;;16.03;53.62;100094.00;5054031;28;20515;-56
2021/05/16 09:48:30;;;;;;;15.30;6.18;;;;;;;16.28;54.55;100095.97;5053223;28;20391;-55
2021/05/16 09:51:03;;;;;;;14.60;6.18;;;;;;;16.41;54.34;100088.44;5054158;28;20127;-58
2021/05/16 09:53:31;;;;;;;22.30;6.60;;;;;;;16.64;55.06;100091.41;5054315;28;20045;-58
2021/05/16 09:56:26;;;;;;;17.63;5.57;;;;;;;16.52;54.68;100092.66;5051944;28;20045;-58
2021/05/16 09:58:55;;;;;;;13.13;4.75;;;;;;;16.68;52.97;100084.78;5053767;28;20052;-56
2021/05/16 10:01:24;;;;;;;14.15;4.85;;;;;;;17.02;52.96;100081.31;5053795;28;20057;-56
2021/05/16 10:03:51;;;;;;;13.45;4.70;;;;;;;17.12;51.92;100077.69;5053734;28;20056;-56
2021/05/16 10:06:19;;;;;;;14.45;4.00;;;;;;;17.10;52.25;100072.56;5052529;28;20049;-56
2021/05/16 10:08:48;;;;;;;13.40;4.50;;;;;;;17.10;52.57;100074.34;5036166;28;20041;-54
2021/05/16 10:11:20;;;;;;;13.95;4.80;;;;;;;17.44;52.74;100070.78;5036545;28;20045;-58
2021/05/16 10:14:03;;;;;;;18.38;3.90;;;;;;;17.48;51.58;100067.66;5053350;28;20044;-60
2021/05/16 10:16:34;;;;;;;15.15;3.95;;;;;;;17.36;51.38;100061.00;5053684;28;20048;-59
2021/05/16 10:19:03;;;;;;;10.30;3.13;;;;;;;17.46;51.56;100064.31;5052623;28;20048;-56
2021/05/16 10:21:30;;;;;;;12.40;4.38;;;;;;;17.47;50.23;100060.69;5053502;28;20215;-56
2021/05/16 10:24:11;;;;;;;15.27;3.40;;;;;;;17.65;49.98;100065.00;5053681;28;20049;-57
2021/05/16 10:26:40;;;;;;;11.68;3.30;;;;;;;17.52;49.13;100063.69;5053397;28;20053;-56
2021/05/16 10:29:12;;;;;;;7.97;3.10;;;;;;;17.73;49.14;100059.69;5053371;28;20123;-57
2021/05/16 10:31:44;;;;;;;15.07;4.13;;;;;;;17.69;49.32;100056.53;5053129;28;20123;-59
2021/05/16 10:34:30;;;;;;;10.73;3.80;;;;;;;16.98;50.26;100060.56;5053168;28;20128;-58
2021/05/16 10:37:07;;;;;;;11.68;3.35;;;;;;;17.34;50.94;100060.31;5052825;28;20120;-58
2021/05/16 10:39:40;;;;;;;14.70;4.07;;;;;;;17.19;49.98;100053.00;5053198;28;20076;-58
2021/05/16 10:42:09;;;;;;;;;;;;;;;17.55;48.37;100047.38;5053363;28;20129;-59
2021/05/16 10:44:39;;;;;;;10.63;3.13;;;;;;;17.40;48.80;100055.19;5052650;28;20327;-58
2021/05/16 10:47:07;;;;;;;12.15;3.25;;;;;;;17.49;48.14;100056.03;5051859;28;20045;-58
2021/05/16 10:49:35;;;;;;;8.60;2.80;;;;;;;17.98;48.03;100041.09;5053066;28;20036;-60
2021/05/16 10:52:28;;;;;;;11.48;2.80;;;;;;;17.97;47.61;100037.63;5051754;28;20048;-58
2021/05/16 10:54:58;;;;;;;12.55;2.60;;;;;;;17.63;48.65;100037.75;5052747;28;20076;-57
2021/05/16 10:57:37;;;;;;;10.77;2.78;;;;;;;17.62;47.62;100036.94;5034832;28;20097;-56
2021/05/16 11:00:20;;;;;;;11.30;2.90;;;;;;;17.75;47.09;100036.41;5052247;28;20047;-57
2021/05/16 11:03:12;;;;;;;10.40;2.47;;;;;;;17.96;47.58;100038.63;5051711;28;20049;-57
2021/05/16 11:05:51;;;;;;;10.02;2.60;;;;;;;18.15;47.05;100034.78;5052128;28;20062;-56
2021/05/16 11:08:18;;;;;;;12.40;2.85;;;;;;;18.36;47.00;100034.22;5052534;28;20041;-57
2021/05/16 11:10:51;;;;;;;9.05;2.40;;;;;;;18.56;47.86;100033.84;5052589;28;20037;-57
2021/05/16 11:13:26;;;;;;;;;;;;;;;18.52;43.75;100022.69;5052980;28;20053;-56
2021/05/16 11:15:57;;;;;;;11.27;2.42;;;;;;;18.48;45.56;100021.38;5050899;28;19928;-56
2021/05/16 11:18:25;;;;;;;10.52;3.03;;;;;;;18.36;45.09;100012.09;5052013;28;20052;-56
2021/05/16 11:20:56;;;;;;;12.75;2.70;;;;;;;18.49;45.63;100017.72;5052430;28;20052;-57
2021/05/16 11:23:34;;;;;;;12.07;2.92;;;;;;;18.19;46.55;100013.97;5034832;28;20567;-57
2021/05/16 11:26:14;;;;;;;11.93;3.45;;;;;;;18.21;45.58;100017.28;5051210;28;20052;-58